| time (UTC) | temp C | wind direction | speed KPH | gust KPH | rain 1hr cm | rain 24hr cm | rain mn cm | humidity % | barometer mb |
| 20260906121203 | 22 | 79 | 1.6 | 4.8 | 0.00 | 1.09 | 0.00 | 96 | 1015.0 |
| 20260906120704 | 22 | 32 | 0.0 | 0.0 | 0.00 | 1.09 | 0.00 | 97 | 1015.0 |
| 20260906120203 | 21 | 32 | 0.0 | 0.0 | 0.00 | 1.09 | 0.00 | 97 | 1014.9 |
| 20260906114203 | 21 | 32 | 0.0 | 0.0 | 0.00 | 1.09 | 0.00 | 97 | 1014.7 |
| 20260906113704 | 21 | 32 | 0.0 | 0.0 | 0.00 | 1.09 | 0.00 | 98 | 1014.7 |
| 20260906113203 | 21 | 32 | 0.0 | 0.0 | 0.00 | 1.09 | 0.00 | 98 | 1014.6 |
| 20260906111704 | 21 | 32 | 0.0 | 0.0 | 0.00 | 1.09 | 0.00 | 98 | 1014.3 |
| 20260906111203 | 21 | 32 | 0.0 | 0.0 | 0.00 | 1.09 | 0.00 | 98 | 1014.3 |
| 20260906110704 | 21 | 32 | 0.0 | 0.0 | 0.00 | 1.09 | 0.00 | 98 | 1014.2 |
| 20260906110204 | 21 | 32 | 0.0 | 0.0 | 0.00 | 1.09 | 0.00 | 98 | 1014.1 |
| 20260906104704 | 21 | 32 | 0.0 | 0.0 | 0.00 | 1.09 | 0.00 | 98 | 1013.7 |
| 20260906104203 | 21 | 32 | 0.0 | 0.0 | 0.00 | 1.09 | 0.00 | 98 | 1013.6 |
| 20260906103703 | 21 | 32 | 0.0 | 0.0 | 0.00 | 1.09 | 0.00 | 98 | 1013.6 |
| 20260906103203 | 21 | 32 | 0.0 | 0.0 | 0.00 | 1.09 | 0.00 | 98 | 1013.6 |
| 20260906101703 | 21 | 32 | 0.0 | 0.0 | 0.00 | 1.09 | 0.00 | 98 | 1013.4 |
| 20260906101204 | 21 | 32 | 0.0 | 0.0 | 0.00 | 1.09 | 0.00 | 98 | 1013.4 |
| 20260906100703 | 21 | 32 | 0.0 | 0.0 | 0.00 | 1.09 | 0.00 | 98 | 1013.4 |
| 20260906100204 | 21 | 32 | 0.0 | 0.0 | 0.00 | 1.09 | 0.00 | 98 | 1013.4 |
| 20260906094704 | 21 | 32 | 0.0 | 0.0 | 0.00 | 1.09 | 0.00 | 98 | 1013.3 |
| 20260906094204 | 21 | 32 | 0.0 | 0.0 | 0.00 | 1.09 | 0.00 | 98 | 1013.2 |
| 20260906093703 | 21 | 32 | 0.0 | 0.0 | 0.00 | 1.09 | 0.00 | 98 | 1013.2 |
| 20260906093203 | 21 | 32 | 0.0 | 0.0 | 0.00 | 1.09 | 0.00 | 98 | 1013.2 |
| 20260906091703 | 21 | 32 | 0.0 | 0.0 | 0.00 | 1.09 | 0.00 | 98 | 1013.2 |
| 20260906091204 | 21 | 32 | 0.0 | 0.0 | 0.00 | 1.09 | 0.00 | 98 | 1013.3 |
| 20260906090704 | 21 | 32 | 0.0 | 0.0 | 0.00 | 1.09 | 0.00 | 98 | 1013.2 |
| 20260906090203 | 21 | 32 | 0.0 | 0.0 | 0.00 | 1.09 | 0.00 | 98 | 1013.1 |
| 20260906084703 | 21 | 32 | 0.0 | 0.0 | 0.00 | 1.09 | 0.00 | 98 | 1013.2 |
| 20260906084204 | 21 | 32 | 0.0 | 0.0 | 0.00 | 1.09 | 0.00 | 98 | 1013.2 |
| 20260906083704 | 21 | 32 | 0.0 | 0.0 | 0.00 | 1.09 | 0.00 | 98 | 1013.2 |
| 20260906081703 | 21 | 32 | 0.0 | 0.0 | 0.00 | 1.09 | 0.00 | 98 | 1013.3 |
| 20260906081203 | 21 | 32 | 0.0 | 0.0 | 0.00 | 1.09 | 0.00 | 98 | 1013.3 |
| 20260906080204 | 21 | 32 | 0.0 | 0.0 | 0.00 | 1.09 | 0.00 | 98 | 1013.3 |
| 20260906074703 | 21 | 32 | 0.0 | 0.0 | 0.00 | 1.09 | 0.00 | 98 | 1013.1 |
| 20260906074203 | 21 | 32 | 0.0 | 0.0 | 0.00 | 1.09 | 0.00 | 98 | 1013.1 |
| 20260906073704 | 21 | 32 | 0.0 | 0.0 | 0.00 | 1.09 | 0.00 | 98 | 1013.1 |
| 20260906073203 | 21 | 32 | 0.0 | 8.0 | 0.00 | 1.09 | 0.00 | 98 | 1013.0 |
| 20260906071704 | 21 | 35 | 4.8 | 8.0 | 0.00 | 1.09 | 0.00 | 98 | 1012.8 |
| 20260906071203 | 21 | 30 | 0.0 | 0.0 | 0.00 | 1.09 | 0.00 | 98 | 1012.8 |
| 20260906070703 | 21 | 30 | 0.0 | 0.0 | 0.00 | 1.09 | 0.00 | 98 | 1012.8 |
| 20260906070203 | 21 | 30 | 0.0 | 8.0 | 0.00 | 1.09 | 0.00 | 98 | 1012.7 |
| 20260906064204 | 21 | 28 | 0.0 | 0.0 | 0.00 | 1.09 | 0.00 | 98 | 1013.0 |
| 20260906063704 | 21 | 28 | 0.0 | 0.0 | 0.00 | 1.09 | 0.00 | 98 | 1013.0 |
| 20260906063204 | 21 | 28 | 0.0 | 0.0 | 0.00 | 1.09 | 0.00 | 98 | 1013.1 |
| 20260906061703 | 22 | 28 | 0.0 | 0.0 | 0.00 | 1.09 | 0.00 | 98 | 1013.0 |
| 20260906060703 | 22 | 28 | 0.0 | 0.0 | 0.00 | 1.09 | 0.00 | 98 | 1013.1 |
| 20260906060204 | 22 | 28 | 0.0 | 3.2 | 0.00 | 1.09 | 0.00 | 98 | 1013.0 |
| 20260906054704 | 22 | 62 | 0.0 | 0.0 | 0.00 | 1.09 | 0.00 | 97 | 1013.1 |
| 20260906054203 | 22 | 62 | 0.0 | 0.0 | 0.00 | 1.09 | 0.00 | 97 | 1013.1 |
| 20260906053704 | 22 | 62 | 0.0 | 0.0 | 0.00 | 1.09 | 0.00 | 97 | 1013.1 |
| 20260906053204 | 22 | 62 | 0.0 | 0.0 | 0.00 | 1.09 | 0.00 | 97 | 1013.1 |
| 20260906051703 | 22 | 62 | 0.0 | 0.0 | 0.00 | 1.09 | 0.00 | 97 | 1013.1 |
| 20260906051204 | 22 | 62 | 0.0 | 0.0 | 0.00 | 1.09 | 0.00 | 97 | 1013.1 |
| 20260906050703 | 22 | 62 | 0.0 | 0.0 | 0.00 | 1.09 | 0.00 | 97 | 1013.1 |
| 20260906050204 | 22 | 62 | 0.0 | 4.8 | 0.00 | 1.09 | 0.00 | 97 | 1013.0 |
| 20260906044704 | 22 | 35 | 0.0 | 4.8 | 0.00 | 1.09 | 0.00 | 97 | 1012.8 |
| 20260906044203 | 22 | 316 | 0.0 | 0.0 | 0.00 | 1.09 | 0.00 | 97 | 1012.9 |
| 20260906043703 | 22 | 316 | 0.0 | 0.0 | 0.00 | 1.09 | 0.00 | 97 | 1012.8 |
| 20260906043203 | 22 | 316 | 0.0 | 0.0 | 0.00 | 1.09 | 0.00 | 97 | 1012.8 |
| 20260906041703 | 22 | 316 | 0.0 | 0.0 | 0.00 | 1.09 | 0.00 | 97 | 1012.8 |
| 20260906041204 | 22 | 316 | 0.0 | 0.0 | 0.00 | 1.09 | 0.00 | 97 | 1012.8 |
| 20260906040705 | 22 | 316 | 0.0 | 0.0 | 0.00 | 1.09 | 0.00 | 97 | 1012.8 |
| 20260906040204 | 22 | 343 | 1.6 | 3.2 | 0.00 | 1.09 | 0.00 | 97 | 1012.7 |
| 20260906034203 | 22 | 36 | 4.8 | 9.7 | 0.00 | 1.09 | 1.09 | 97 | 1012.9 |
| 20260906033202 | 23 | 44 | 0.0 | 0.0 | 0.00 | 1.09 | 1.09 | 96 | 1013.1 |
| 20260906031703 | 23 | 44 | 0.0 | 0.0 | 0.00 | 1.09 | 1.09 | 96 | 1013.1 |
| 20260906031203 | 23 | 44 | 0.0 | 0.0 | 0.00 | 1.09 | 1.09 | 96 | 1013.2 |
| 20260906024702 | 23 | 22 | 1.6 | 8.0 | 0.00 | 1.09 | 1.09 | 96 | 1013.5 |
| 20260906024202 | 23 | 45 | 4.8 | 8.0 | 0.00 | 1.09 | 1.09 | 96 | 1013.5 |
| 20260906023702 | 23 | 10 | 1.6 | 4.8 | 0.00 | 1.09 | 1.09 | 96 | 1013.5 |
| 20260906023202 | 23 | 5 | 0.0 | 4.8 | 0.00 | 1.09 | 1.09 | 96 | 1013.5 |
| 20260906021702 | 23 | 38 | 1.6 | 3.2 | 0.00 | 1.09 | 1.09 | 96 | 1013.5 |
| 20260906020703 | 23 | 44 | 3.2 | 8.0 | 0.00 | 1.09 | 1.09 | 96 | 1013.2 |
| 20260906020203 | 23 | 53 | 4.8 | 8.0 | 0.00 | 1.09 | 1.09 | 96 | 1013.2 |
| 20260906014703 | 23 | 51 | 1.6 | 3.2 | 0.00 | 1.09 | 1.09 | 95 | 1013.3 |
| 20260906014202 | 23 | 23 | 0.0 | 0.0 | 0.00 | 1.09 | 1.09 | 95 | 1013.3 |
| 20260906013702 | 23 | 16 | 3.2 | 4.8 | 0.00 | 1.09 | 1.09 | 96 | 1012.9 |
| 20260906013203 | 23 | 34 | 3.2 | 4.8 | 0.00 | 1.09 | 1.09 | 95 | 1012.8 |
| 20260906011703 | 23 | 31 | 0.0 | 3.2 | 0.00 | 1.09 | 1.09 | 95 | 1012.6 |
| 20260906011203 | 23 | 55 | 1.6 | 8.0 | 0.00 | 1.09 | 1.09 | 94 | 1012.3 |
| 20260906010203 | 24 | 49 | 0.0 | 4.8 | 0.00 | 1.09 | 1.09 | 94 | 1012.3 |
| 20260906004702 | 24 | 34 | 1.6 | 3.2 | 0.00 | 1.09 | 1.09 | 93 | 1012.3 |
| 20260906004203 | 25 | 1 | 0.0 | 0.0 | 0.00 | 1.09 | 1.09 | 92 | 1012.4 |
| 20260906003703 | 25 | 1 | 0.0 | 0.0 | 0.00 | 1.09 | 1.09 | 92 | 1012.3 |
| 20260906003203 | 25 | 1 | 0.0 | 8.0 | 0.00 | 1.09 | 1.09 | 91 | 1012.2 |
| 20260906001702 | 25 | 14 | 0.0 | 0.0 | 0.00 | 1.09 | 1.09 | 89 | 1012.2 |
| 20260906001203 | 25 | 14 | 0.0 | 0.0 | 0.00 | 1.09 | 1.09 | 89 | 1012.1 |
| 20260906000703 | 26 | 14 | 1.6 | 1.6 | 0.00 | 1.09 | 1.09 | 88 | 1012.3 |
| 20260906000204 | 26 | 51 | 3.2 | 8.0 | 0.00 | 1.09 | 1.09 | 88 | 1012.2 |
| 20260905234703 | 26 | 17 | 0.0 | 0.0 | 0.00 | 1.09 | 1.09 | 84 | 1012.4 |
| 20260905234203 | 27 | 17 | 0.0 | 0.0 | 0.00 | 1.09 | 1.09 | 82 | 1012.4 |
| 20260905233702 | 27 | 17 | 0.0 | 0.0 | 0.00 | 1.09 | 1.09 | 81 | 1012.5 |
| 20260905233202 | 27 | 17 | 0.0 | 0.0 | 0.00 | 1.09 | 1.09 | 80 | 1012.5 |
| 20260905231703 | 28 | 17 | 0.0 | 0.0 | 0.00 | 1.09 | 1.09 | 75 | 1012.6 |
| 20260905231203 | 28 | 17 | 0.0 | 0.0 | 0.00 | 1.09 | 1.09 | 74 | 1012.7 |
| 20260905230702 | 28 | 17 | 0.0 | 0.0 | 0.00 | 1.09 | 1.09 | 75 | 1012.7 |
| 20260905230202 | 28 | 17 | 0.0 | 1.6 | 0.00 | 1.09 | 1.09 | 74 | 1012.6 |
| 20260905224702 | 28 | 40 | 0.0 | 3.2 | 0.00 | 1.09 | 1.09 | 74 | 1012.5 |
| 20260905224202 | 28 | 56 | 3.2 | 9.7 | 0.00 | 1.09 | 1.09 | 74 | 1012.5 |
| 20260905223702 | 28 | 49 | 6.4 | 9.7 | 0.00 | 1.09 | 1.09 | 73 | 1012.6 |
| 20260905223203 | 28 | 16 | 0.0 | 0.0 | 0.00 | 1.09 | 1.09 | 74 | 1012.6 |
| 20260905221702 | 28 | 16 | 0.0 | 0.0 | 0.00 | 1.09 | 1.09 | 72 | 1012.6 |
| 20260905220702 | 29 | 356 | 1.6 | 3.2 | 0.00 | 1.09 | 1.09 | 69 | 1012.4 |
| 20260905220203 | 30 | 344 | 0.0 | 8.0 | 0.00 | 1.09 | 1.09 | 67 | 1012.4 |
| 20260905214703 | 31 | 342 | 3.2 | 9.7 | 0.00 | 1.09 | 1.09 | 62 | 1012.3 |
| 20260905214203 | 31 | 309 | 4.8 | 9.7 | 0.00 | 1.09 | 1.09 | 62 | 1012.3 |
| 20260905213702 | 31 | 312 | 4.8 | 12.9 | 0.00 | 1.09 | 1.09 | 60 | 1012.3 |
| 20260905213203 | 32 | 264 | 4.8 | 14.5 | 0.00 | 1.09 | 1.09 | 59 | 1012.3 |
| 20260905211702 | 31 | 292 | 4.8 | 9.7 | 0.00 | 1.09 | 1.09 | 61 | 1012.2 |
| 20260905211203 | 31 | 315 | 6.4 | 12.9 | 0.00 | 1.09 | 1.09 | 61 | 1012.1 |
| 20260905210703 | 30 | 307 | 8.0 | 12.9 | 0.00 | 1.09 | 1.09 | 62 | 1012.1 |
| 20260905204703 | 31 | 249 | 6.4 | 14.5 | 0.00 | 1.09 | 1.09 | 60 | 1012.1 |
| 20260905204202 | 31 | 338 | 6.4 | 12.9 | 0.00 | 1.09 | 1.09 | 60 | 1012.0 |
| 20260905203203 | 30 | 346 | 4.8 | 12.9 | 0.00 | 1.09 | 1.09 | 64 | 1012.3 |
| 20260905201702 | 29 | 320 | 8.0 | 14.5 | 0.00 | 1.09 | 1.09 | 69 | 1012.5 |
| 20260905201202 | 30 | 305 | 9.7 | 14.5 | 0.00 | 1.09 | 1.09 | 65 | 1012.6 |
| 20260905200203 | 31 | 332 | 4.8 | 11.3 | 0.00 | 1.09 | 1.09 | 64 | 1012.6 |
| 20260905194702 | 30 | 2 | 6.4 | 9.7 | 0.00 | 1.09 | 1.09 | 64 | 1012.7 |
| 20260905194202 | 30 | 313 | 8.0 | 12.9 | 0.00 | 1.09 | 1.09 | 65 | 1012.8 |
| 20260905193202 | 30 | 343 | 1.6 | 4.8 | 0.00 | 1.09 | 1.09 | 68 | 1012.9 |
| 20260905191703 | 28 | 281 | 1.6 | 3.2 | 0.00 | 1.09 | 1.09 | 72 | 1013.0 |
| 20260905191203 | 28 | 286 | 1.6 | 4.8 | 0.00 | 1.09 | 1.09 | 72 | 1013.2 |
| 20260905190203 | 28 | 291 | 4.8 | 9.7 | 0.00 | 1.09 | 1.09 | 70 | 1013.4 |
| 20260905184703 | 29 | 274 | 6.4 | 9.7 | 0.00 | 1.09 | 1.09 | 70 | 1013.5 |
| 20260905184202 | 29 | 268 | 0.0 | 3.2 | 0.00 | 1.09 | 1.09 | 71 | 1013.5 |
| 20260905183703 | 28 | 321 | 1.6 | 4.8 | 0.00 | 1.09 | 1.09 | 72 | 1013.7 |
| 20260905183202 | 28 | 289 | 1.6 | 8.0 | 0.00 | 1.09 | 1.09 | 72 | 1013.7 |
| 20260905181702 | 28 | 256 | 3.2 | 8.0 | 0.00 | 1.09 | 1.09 | 73 | 1014.1 |
| 20260905181203 | 28 | 291 | 4.8 | 8.0 | 0.00 | 1.45 | 1.09 | 74 | 1014.1 |
| 20260905180702 | 28 | 283 | 4.8 | 8.0 | 0.00 | 1.47 | 1.09 | 71 | 1014.1 |
| 20260905180203 | 28 | 324 | 3.2 | 8.0 | 0.00 | 1.47 | 1.09 | 69 | 1014.1 |
| 20260905174202 | 28 | 341 | 3.2 | 8.0 | 0.00 | 1.47 | 1.09 | 71 | 1014.2 |
| 20260905173702 | 28 | 228 | 4.8 | 9.7 | 0.00 | 1.47 | 1.09 | 73 | 1014.2 |
| 20260905173203 | 28 | 219 | 1.6 | 9.7 | 0.00 | 1.47 | 1.09 | 74 | 1014.4 |
| 20260905171702 | 28 | 84 | 3.2 | 9.7 | 0.00 | 1.47 | 1.09 | 72 | 1014.5 |
| 20260905171202 | 28 | 96 | 3.2 | 8.0 | 0.00 | 1.47 | 1.09 | 76 | 1014.6 |
| 20260905170702 | 27 | 65 | 3.2 | 9.7 | 0.00 | 1.47 | 1.09 | 76 | 1014.6 |
| 20260905164702 | 27 | 159 | 4.8 | 11.3 | 0.00 | 1.47 | 1.09 | 77 | 1014.7 |
| 20260905164203 | 27 | 152 | 6.4 | 11.3 | 0.00 | 1.47 | 1.09 | 78 | 1014.8 |
| 20260905163702 | 27 | 137 | 4.8 | 11.3 | 0.00 | 1.47 | 1.09 | 80 | 1014.9 |
| 20260905163203 | 26 | 124 | 9.7 | 14.5 | 0.00 | 1.47 | 1.09 | 82 | 1014.9 |
| 20260905161703 | 26 | 72 | 1.6 | 11.3 | 0.00 | 1.47 | 1.09 | 81 | 1015.4 |
| 20260905161203 | 26 | 72 | 0.0 | 9.7 | 0.00 | 1.47 | 1.09 | 82 | 1015.4 |
| 20260905160702 | 26 | 322 | 3.2 | 4.8 | 0.00 | 1.47 | 1.09 | 84 | 1015.3 |
| 20260905154702 | 25 | 196 | 3.2 | 11.3 | 0.00 | 1.47 | 1.09 | 87 | 1015.3 |
| 20260905154202 | 25 | 82 | 4.8 | 8.0 | 0.00 | 1.47 | 1.09 | 86 | 1015.0 |
| 20260905153203 | 25 | 183 | 8.0 | 12.9 | 0.00 | 1.47 | 1.09 | 91 | 1014.6 |
| 20260905151702 | 23 | 224 | 9.7 | 12.9 | 0.00 | 1.47 | 1.09 | 92 | 1015.0 |
| 20260905151203 | 23 | 227 | 4.8 | 12.9 | 0.00 | 1.47 | 1.09 | 92 | 1015.1 |
| 20260905150203 | 24 | 216 | 8.0 | 12.9 | 0.00 | 1.47 | 1.09 | 93 | 1014.7 |
| 20260905144703 | 24 | 208 | 1.6 | 11.3 | 0.00 | 1.47 | 1.09 | 95 | 1014.5 |
| 20260905144202 | 24 | 196 | 3.2 | 11.3 | 0.00 | 1.47 | 1.09 | 95 | 1014.2 |
| 20260905143203 | 23 | 209 | 4.8 | 12.9 | 0.00 | 1.47 | 1.09 | 96 | 1014.6 |
| 20260905141703 | 23 | 187 | 9.7 | 12.9 | 0.00 | 1.47 | 1.09 | 96 | 1014.8 |
| 20260905141203 | 23 | 190 | 6.4 | 12.9 | 0.00 | 1.47 | 1.09 | 97 | 1015.0 |
| 20260905140703 | 23 | 193 | 1.6 | 9.7 | 0.03 | 1.47 | 1.09 | 97 | 1015.2 |
| 20260905140203 | 23 | 174 | 8.0 | 11.3 | 0.10 | 1.47 | 1.09 | 97 | 1015.3 |
| 20260905134702 | 22 | 79 | 0.0 | 0.0 | 0.36 | 1.47 | 1.09 | 98 | 1015.6 |
| 20260905134203 | 22 | 79 | 0.0 | 0.0 | 0.36 | 1.47 | 1.09 | 98 | 1015.8 |
| 20260905133703 | 22 | 79 | 0.0 | 0.0 | 0.36 | 1.47 | 1.09 | 98 | 1016.0 |
| 20260905133203 | 22 | 79 | 0.0 | 0.0 | 0.36 | 1.47 | 1.09 | 98 | 1016.3 |
| 20260905131703 | 22 | 79 | 0.0 | 0.0 | 0.84 | 1.47 | 1.09 | 98 | 1016.1 |
| 20260905131202 | 22 | 79 | 0.0 | 0.0 | 1.09 | 1.47 | 1.09 | 98 | 1016.1 |
| 20260905130203 | 22 | 79 | 0.0 | 0.0 | 0.99 | 1.37 | 0.99 | 98 | 1016.4 |
| 20260905124702 | 22 | 79 | 0.0 | 0.0 | 0.74 | 1.12 | 0.74 | 97 | 1015.7 |
| 20260905124202 | 22 | 79 | 0.0 | 0.0 | 0.74 | 1.12 | 0.74 | 97 | 1015.7 |
| 20260905123703 | 22 | 79 | 0.0 | 0.0 | 0.74 | 1.12 | 0.74 | 97 | 1015.8 |
| 20260905123203 | 22 | 79 | 0.0 | 8.0 | 0.74 | 1.12 | 0.74 | 97 | 1015.8 |
| 20260905121703 | 23 | 40 | 4.8 | 14.5 | 0.25 | 0.64 | 0.25 | 94 | 1016.0 |